sensor_id;sensor_type;location;lat;lon;timestamp;P1;durP1;ratioP1;P2;durP2;ratioP2
1336;SDS011;662;48.814;9.318;2023-08-20T00:00:28;9.97;;;8.97;;
1336;SDS011;662;48.814;9.318;2023-08-20T00:03:03;9.70;;;8.80;;
1336;SDS011;662;48.814;9.318;2023-08-20T00:05:35;9.97;;;8.83;;
1336;SDS011;662;48.814;9.318;2023-08-20T00:08:01;9.67;;;8.77;;
1336;SDS011;662;48.814;9.318;2023-08-20T00:10:27;10.73;;;9.83;;
1336;SDS011;662;48.814;9.318;2023-08-20T00:12:53;9.30;;;8.50;;
1336;SDS011;662;48.814;9.318;2023-08-20T00:15:18;11.30;;;9.30;;
1336;SDS011;662;48.814;9.318;2023-08-20T00:17:45;9.40;;;8.20;;
1336;SDS011;662;48.814;9.318;2023-08-20T00:20:11;9.60;;;8.73;;
1336;SDS011;662;48.814;9.318;2023-08-20T00:22:40;9.03;;;8.13;;
1336;SDS011;662;48.814;9.318;2023-08-20T00:25:10;8.40;;;7.50;;
1336;SDS011;662;48.814;9.318;2023-08-20T00:27:36;14.63;;;9.27;;
1336;SDS011;662;48.814;9.318;2023-08-20T00:30:03;9.73;;;8.83;;
1336;SDS011;662;48.814;9.318;2023-08-20T00:32:29;9.30;;;7.97;;
1336;SDS011;662;48.814;9.318;2023-08-20T00:34:54;8.97;;;8.07;;
1336;SDS011;662;48.814;9.318;2023-08-20T00:37:21;10.07;;;9.17;;
1336;SDS011;662;48.814;9.318;2023-08-20T00:39:47;8.90;;;7.90;;
1336;SDS011;662;48.814;9.318;2023-08-20T00:42:12;9.50;;;8.60;;
1336;SDS011;662;48.814;9.318;2023-08-20T00:44:41;9.63;;;8.60;;
1336;SDS011;662;48.814;9.318;2023-08-20T00:47:09;10.97;;;8.97;;
1336;SDS011;662;48.814;9.318;2023-08-20T00:49:35;8.80;;;8.00;;
1336;SDS011;662;48.814;9.318;2023-08-20T00:52:01;9.37;;;8.53;;
1336;SDS011;662;48.814;9.318;2023-08-20T00:54:28;8.77;;;7.93;;
1336;SDS011;662;48.814;9.318;2023-08-20T00:56:54;10.97;;;8.30;;
1336;SDS011;662;48.814;9.318;2023-08-20T00:59:20;10.40;;;8.90;;
1336;SDS011;662;48.814;9.318;2023-08-20T01:01:47;9.30;;;8.40;;
1336;SDS011;662;48.814;9.318;2023-08-20T01:04:13;9.53;;;8.53;;
1336;SDS011;662;48.814;9.318;2023-08-20T01:06:53;9.50;;;8.70;;
1336;SDS011;662;48.814;9.318;2023-08-20T01:09:37;10.80;;;9.70;;
1336;SDS011;662;48.814;9.318;2023-08-20T01:12:20;10.63;;;9.70;;
1336;SDS011;662;48.814;9.318;2023-08-20T01:14:47;11.10;;;10.00;;
1336;SDS011;662;48.814;9.318;2023-08-20T01:17:13;9.73;;;8.73;;
1336;SDS011;662;48.814;9.318;2023-08-20T01:19:38;10.23;;;9.10;;
1336;SDS011;662;48.814;9.318;2023-08-20T01:25:18;9.90;;;8.90;;
1336;SDS011;662;48.814;9.318;2023-08-20T01:30:46;9.33;;;8.53;;
1336;SDS011;662;48.814;9.318;2023-08-20T01:33:13;9.97;;;9.00;;
1336;SDS011;662;48.814;9.318;2023-08-20T01:35:39;10.23;;;9.33;;
1336;SDS011;662;48.814;9.318;2023-08-20T01:38:05;10.03;;;9.00;;
1336;SDS011;662;48.814;9.318;2023-08-20T01:40:32;9.40;;;8.60;;
1336;SDS011;662;48.814;9.318;2023-08-20T01:42:58;9.87;;;8.97;;
1336;SDS011;662;48.814;9.318;2023-08-20T01:45:24;9.37;;;8.47;;
1336;SDS011;662;48.814;9.318;2023-08-20T01:47:50;10.37;;;9.23;;
1336;SDS011;662;48.814;9.318;2023-08-20T01:50:16;10.17;;;9.10;;
1336;SDS011;662;48.814;9.318;2023-08-20T01:52:41;9.50;;;8.70;;
1336;SDS011;662;48.814;9.318;2023-08-20T01:55:07;10.27;;;9.20;;
1336;SDS011;662;48.814;9.318;2023-08-20T01:57:33;10.57;;;9.60;;
1336;SDS011;662;48.814;9.318;2023-08-20T01:59:59;9.30;;;8.47;;
1336;SDS011;662;48.814;9.318;2023-08-20T02:02:24;10.40;;;9.30;;
1336;SDS011;662;48.814;9.318;2023-08-20T02:04:50;10.00;;;9.10;;
1336;SDS011;662;48.814;9.318;2023-08-20T02:07:16;10.33;;;9.37;;
1336;SDS011;662;48.814;9.318;2023-08-20T02:09:42;9.77;;;8.97;;
1336;SDS011;662;48.814;9.318;2023-08-20T02:12:07;10.67;;;9.57;;
1336;SDS011;662;48.814;9.318;2023-08-20T02:14:34;10.70;;;9.80;;
1336;SDS011;662;48.814;9.318;2023-08-20T02:17:03;10.17;;;9.27;;
1336;SDS011;662;48.814;9.318;2023-08-20T02:19:29;9.67;;;8.87;;
1336;SDS011;662;48.814;9.318;2023-08-20T02:21:54;10.67;;;9.57;;
1336;SDS011;662;48.814;9.318;2023-08-20T02:24:20;9.60;;;8.60;;
1336;SDS011;662;48.814;9.318;2023-08-20T02:26:46;10.30;;;9.40;;
1336;SDS011;662;48.814;9.318;2023-08-20T02:29:11;9.70;;;8.90;;
1336;SDS011;662;48.814;9.318;2023-08-20T02:31:37;10.73;;;8.90;;
1336;SDS011;662;48.814;9.318;2023-08-20T02:34:03;11.53;;;9.40;;
1336;SDS011;662;48.814;9.318;2023-08-20T02:36:28;10.00;;;9.10;;
1336;SDS011;662;48.814;9.318;2023-08-20T02:38:54;10.00;;;9.00;;
1336;SDS011;662;48.814;9.318;2023-08-20T02:41:20;11.33;;;9.80;;
1336;SDS011;662;48.814;9.318;2023-08-20T02:43:45;8.20;;;7.40;;
1336;SDS011;662;48.814;9.318;2023-08-20T02:46:11;10.90;;;9.73;;
1336;SDS011;662;48.814;9.318;2023-08-20T02:48:37;10.30;;;9.30;;
1336;SDS011;662;48.814;9.318;2023-08-20T02:51:02;10.00;;;9.20;;
1336;SDS011;662;48.814;9.318;2023-08-20T02:53:28;9.63;;;8.73;;
1336;SDS011;662;48.814;9.318;2023-08-20T02:55:54;10.07;;;9.07;;
1336;SDS011;662;48.814;9.318;2023-08-20T02:58:21;9.90;;;8.60;;
1336;SDS011;662;48.814;9.318;2023-08-20T03:00:47;10.77;;;9.77;;
1336;SDS011;662;48.814;9.318;2023-08-20T03:03:12;11.33;;;10.23;;
1336;SDS011;662;48.814;9.318;2023-08-20T03:05:38;9.63;;;8.73;;
1336;SDS011;662;48.814;9.318;2023-08-20T03:08:04;10.67;;;9.57;;
1336;SDS011;662;48.814;9.318;2023-08-20T03:10:30;10.60;;;9.47;;
1336;SDS011;662;48.814;9.318;2023-08-20T03:12:57;9.70;;;8.80;;
1336;SDS011;662;48.814;9.318;2023-08-20T03:15:23;11.10;;;10.10;;
1336;SDS011;662;48.814;9.318;2023-08-20T03:17:49;10.80;;;9.80;;
1336;SDS011;662;48.814;9.318;2023-08-20T03:20:14;12.03;;;10.60;;
1336;SDS011;662;48.814;9.318;2023-08-20T03:22:40;9.90;;;8.90;;
1336;SDS011;662;48.814;9.318;2023-08-20T03:25:06;9.50;;;8.60;;
1336;SDS011;662;48.814;9.318;2023-08-20T03:27:32;10.23;;;9.33;;
1336;SDS011;662;48.814;9.318;2023-08-20T03:29:57;10.60;;;9.70;;
1336;SDS011;662;48.814;9.318;2023-08-20T03:32:23;10.83;;;9.93;;
1336;SDS011;662;48.814;9.318;2023-08-20T03:34:49;10.37;;;9.47;;
1336;SDS011;662;48.814;9.318;2023-08-20T03:37:15;10.23;;;9.33;;
1336;SDS011;662;48.814;9.318;2023-08-20T03:39:40;10.10;;;9.00;;
1336;SDS011;662;48.814;9.318;2023-08-20T03:42:06;12.93;;;8.80;;
1336;SDS011;662;48.814;9.318;2023-08-20T03:44:32;11.40;;;10.30;;
1336;SDS011;662;48.814;9.318;2023-08-20T03:46:58;10.33;;;9.50;;
1336;SDS011;662;48.814;9.318;2023-08-20T03:49:23;10.33;;;9.33;;
1336;SDS011;662;48.814;9.318;2023-08-20T03:51:49;10.00;;;9.10;;
1336;SDS011;662;48.814;9.318;2023-08-20T03:54:15;9.87;;;8.97;;
1336;SDS011;662;48.814;9.318;2023-08-20T03:56:41;10.07;;;9.07;;
1336;SDS011;662;48.814;9.318;2023-08-20T03:59:07;10.20;;;9.20;;
1336;SDS011;662;48.814;9.318;2023-08-20T04:01:32;10.83;;;9.83;;
1336;SDS011;662;48.814;9.318;2023-08-20T04:03:58;9.80;;;8.80;;
1336;SDS011;662;48.814;9.318;2023-08-20T04:06:23;10.43;;;9.43;;
1336;SDS011;662;48.814;9.318;2023-08-20T04:08:49;11.53;;;10.20;;
1336;SDS011;662;48.814;9.318;2023-08-20T04:11:15;10.37;;;9.37;;
1336;SDS011;662;48.814;9.318;2023-08-20T04:13:40;10.53;;;9.53;;
1336;SDS011;662;48.814;9.318;2023-08-20T04:16:08;11.20;;;10.20;;
1336;SDS011;662;48.814;9.318;2023-08-20T04:18:34;11.50;;;10.03;;
1336;SDS011;662;48.814;9.318;2023-08-20T04:21:00;12.70;;;10.00;;
1336;SDS011;662;48.814;9.318;2023-08-20T04:23:25;11.10;;;9.30;;
1336;SDS011;662;48.814;9.318;2023-08-20T04:25:51;10.90;;;9.90;;
1336;SDS011;662;48.814;9.318;2023-08-20T04:28:17;10.93;;;9.93;;
1336;SDS011;662;48.814;9.318;2023-08-20T04:30:43;10.03;;;9.13;;
1336;SDS011;662;48.814;9.318;2023-08-20T04:33:19;9.67;;;8.80;;
1336;SDS011;662;48.814;9.318;2023-08-20T04:35:44;10.60;;;9.67;;
1336;SDS011;662;48.814;9.318;2023-08-20T04:38:10;10.93;;;9.83;;
1336;SDS011;662;48.814;9.318;2023-08-20T04:40:35;10.53;;;9.57;;
1336;SDS011;662;48.814;9.318;2023-08-20T04:43:01;10.83;;;9.77;;
1336;SDS011;662;48.814;9.318;2023-08-20T04:45:27;10.33;;;9.30;;
1336;SDS011;662;48.814;9.318;2023-08-20T04:47:52;10.60;;;9.57;;
1336;SDS011;662;48.814;9.318;2023-08-20T04:50:18;10.17;;;9.27;;
1336;SDS011;662;48.814;9.318;2023-08-20T04:52:43;10.33;;;9.30;;
1336;SDS011;662;48.814;9.318;2023-08-20T04:55:09;11.07;;;10.07;;
1336;SDS011;662;48.814;9.318;2023-08-20T04:57:35;9.73;;;8.87;;
1336;SDS011;662;48.814;9.318;2023-08-20T05:00:00;11.13;;;10.20;;
1336;SDS011;662;48.814;9.318;2023-08-20T05:02:26;11.63;;;10.53;;
1336;SDS011;662;48.814;9.318;2023-08-20T05:04:52;10.33;;;9.33;;
1336;SDS011;662;48.814;9.318;2023-08-20T05:07:17;10.30;;;9.17;;
1336;SDS011;662;48.814;9.318;2023-08-20T05:09:43;10.07;;;9.27;;
1336;SDS011;662;48.814;9.318;2023-08-20T05:12:08;11.37;;;9.47;;
1336;SDS011;662;48.814;9.318;2023-08-20T05:14:34;10.47;;;9.43;;
1336;SDS011;662;48.814;9.318;2023-08-20T05:17:00;11.97;;;10.87;;
1336;SDS011;662;48.814;9.318;2023-08-20T05:19:26;10.47;;;9.40;;
1336;SDS011;662;48.814;9.318;2023-08-20T05:21:52;11.07;;;9.97;;
1336;SDS011;662;48.814;9.318;2023-08-20T05:24:21;10.90;;;9.90;;
1336;SDS011;662;48.814;9.318;2023-08-20T05:26:47;12.03;;;9.80;;
1336;SDS011;662;48.814;9.318;2023-08-20T05:29:15;10.37;;;9.40;;
1336;SDS011;662;48.814;9.318;2023-08-20T05:31:40;10.17;;;9.27;;
1336;SDS011;662;48.814;9.318;2023-08-20T05:34:06;11.23;;;10.13;;
1336;SDS011;662;48.814;9.318;2023-08-20T05:36:31;11.20;;;10.03;;
1336;SDS011;662;48.814;9.318;2023-08-20T05:38:58;10.50;;;9.47;;
1336;SDS011;662;48.814;9.318;2023-08-20T05:41:23;10.63;;;9.43;;
1336;SDS011;662;48.814;9.318;2023-08-20T05:43:50;11.73;;;9.90;;
1336;SDS011;662;48.814;9.318;2023-08-20T05:46:15;12.87;;;11.77;;
1336;SDS011;662;48.814;9.318;2023-08-20T05:48:41;11.33;;;10.20;;
1336;SDS011;662;48.814;9.318;2023-08-20T05:51:07;11.73;;;10.63;;
1336;SDS011;662;48.814;9.318;2023-08-20T05:53:32;12.43;;;10.53;;
1336;SDS011;662;48.814;9.318;2023-08-20T05:55:58;11.17;;;10.17;;
1336;SDS011;662;48.814;9.318;2023-08-20T05:58:23;15.00;;;11.33;;
1336;SDS011;662;48.814;9.318;2023-08-20T06:00:49;12.40;;;11.20;;
1336;SDS011;662;48.814;9.318;2023-08-20T06:03:14;11.17;;;10.27;;
1336;SDS011;662;48.814;9.318;2023-08-20T06:05:40;11.17;;;10.17;;
1336;SDS011;662;48.814;9.318;2023-08-20T06:08:06;11.33;;;10.27;;
1336;SDS011;662;48.814;9.318;2023-08-20T06:10:31;11.03;;;9.93;;
1336;SDS011;662;48.814;9.318;2023-08-20T06:12:57;11.50;;;10.60;;
1336;SDS011;662;48.814;9.318;2023-08-20T06:15:22;11.33;;;10.23;;
1336;SDS011;662;48.814;9.318;2023-08-20T06:17:48;10.87;;;9.83;;
1336;SDS011;662;48.814;9.318;2023-08-20T06:20:13;11.40;;;10.40;;
1336;SDS011;662;48.814;9.318;2023-08-20T06:22:39;12.37;;;11.27;;
1336;SDS011;662;48.814;9.318;2023-08-20T06:25:05;11.23;;;10.20;;
1336;SDS011;662;48.814;9.318;2023-08-20T06:27:31;11.67;;;10.17;;
1336;SDS011;662;48.814;9.318;2023-08-20T06:29:56;9.77;;;8.97;;
1336;SDS011;662;48.814;9.318;2023-08-20T06:32:23;12.70;;;11.57;;
1336;SDS011;662;48.814;9.318;2023-08-20T06:34:49;11.30;;;10.30;;
1336;SDS011;662;48.814;9.318;2023-08-20T06:37:15;11.80;;;10.80;;
1336;SDS011;662;48.814;9.318;2023-08-20T06:39:40;11.73;;;10.63;;
1336;SDS011;662;48.814;9.318;2023-08-20T06:42:06;12.23;;;11.00;;
1336;SDS011;662;48.814;9.318;2023-08-20T06:44:31;11.97;;;10.97;;
1336;SDS011;662;48.814;9.318;2023-08-20T06:47:00;15.70;;;11.27;;
1336;SDS011;662;48.814;9.318;2023-08-20T06:49:26;11.77;;;10.77;;
1336;SDS011;662;48.814;9.318;2023-08-20T06:51:52;12.33;;;11.13;;
1336;SDS011;662;48.814;9.318;2023-08-20T06:54:17;11.27;;;10.27;;
1336;SDS011;662;48.814;9.318;2023-08-20T06:56:43;11.03;;;10.00;;
1336;SDS011;662;48.814;9.318;2023-08-20T06:59:09;11.93;;;10.80;;
1336;SDS011;662;48.814;9.318;2023-08-20T07:01:35;11.03;;;9.97;;
1336;SDS011;662;48.814;9.318;2023-08-20T07:04:01;11.53;;;10.43;;
1336;SDS011;662;48.814;9.318;2023-08-20T07:06:27;11.57;;;10.37;;
1336;SDS011;662;48.814;9.318;2023-08-20T07:08:52;11.80;;;10.60;;
1336;SDS011;662;48.814;9.318;2023-08-20T07:11:18;11.90;;;10.67;;
1336;SDS011;662;48.814;9.318;2023-08-20T07:13:44;11.77;;;10.47;;
1336;SDS011;662;48.814;9.318;2023-08-20T07:16:09;12.27;;;11.00;;
1336;SDS011;662;48.814;9.318;2023-08-20T07:18:35;13.77;;;11.73;;
1336;SDS011;662;48.814;9.318;2023-08-20T07:21:01;11.33;;;10.20;;
1336;SDS011;662;48.814;9.318;2023-08-20T07:23:27;12.10;;;10.80;;
1336;SDS011;662;48.814;9.318;2023-08-20T07:26:03;13.00;;;10.40;;
1336;SDS011;662;48.814;9.318;2023-08-20T07:28:30;11.80;;;10.70;;
1336;SDS011;662;48.814;9.318;2023-08-20T07:31:14;12.57;;;11.30;;
1336;SDS011;662;48.814;9.318;2023-08-20T07:33:40;12.80;;;11.70;;
1336;SDS011;662;48.814;9.318;2023-08-20T07:36:05;12.43;;;11.23;;
1336;SDS011;662;48.814;9.318;2023-08-20T07:38:31;10.60;;;9.70;;
1336;SDS011;662;48.814;9.318;2023-08-20T07:40:57;14.10;;;10.97;;
1336;SDS011;662;48.814;9.318;2023-08-20T07:43:23;11.50;;;10.30;;
1336;SDS011;662;48.814;9.318;2023-08-20T07:45:49;11.67;;;10.57;;
1336;SDS011;662;48.814;9.318;2023-08-20T07:48:15;12.67;;;11.57;;
1336;SDS011;662;48.814;9.318;2023-08-20T07:50:40;11.07;;;10.00;;
1336;SDS011;662;48.814;9.318;2023-08-20T07:53:06;10.90;;;10.00;;
1336;SDS011;662;48.814;9.318;2023-08-20T07:55:31;12.90;;;11.50;;
1336;SDS011;662;48.814;9.318;2023-08-20T07:57:57;13.83;;;11.60;;
1336;SDS011;662;48.814;9.318;2023-08-20T08:00:24;11.57;;;10.47;;
1336;SDS011;662;48.814;9.318;2023-08-20T08:02:49;11.23;;;10.13;;
1336;SDS011;662;48.814;9.318;2023-08-20T08:05:15;11.57;;;10.57;;
1336;SDS011;662;48.814;9.318;2023-08-20T08:07:41;14.17;;;10.03;;
1336;SDS011;662;48.814;9.318;2023-08-20T08:10:06;12.20;;;11.10;;
1336;SDS011;662;48.814;9.318;2023-08-20T08:12:32;12.43;;;11.33;;
1336;SDS011;662;48.814;9.318;2023-08-20T08:14:58;11.83;;;10.70;;
1336;SDS011;662;48.814;9.318;2023-08-20T08:17:23;12.30;;;11.10;;
1336;SDS011;662;48.814;9.318;2023-08-20T08:19:49;11.93;;;10.73;;
1336;SDS011;662;48.814;9.318;2023-08-20T08:22:15;11.70;;;10.60;;
1336;SDS011;662;48.814;9.318;2023-08-20T08:24:40;12.37;;;11.20;;
1336;SDS011;662;48.814;9.318;2023-08-20T08:27:07;13.03;;;11.73;;
1336;SDS011;662;48.814;9.318;2023-08-20T08:29:33;11.00;;;9.90;;
1336;SDS011;662;48.814;9.318;2023-08-20T08:32:02;12.17;;;10.93;;
1336;SDS011;662;48.814;9.318;2023-08-20T08:34:28;11.00;;;9.97;;
1336;SDS011;662;48.814;9.318;2023-08-20T08:36:54;10.83;;;9.80;;
1336;SDS011;662;48.814;9.318;2023-08-20T08:39:20;10.93;;;9.83;;
1336;SDS011;662;48.814;9.318;2023-08-20T08:41:46;12.57;;;11.27;;
1336;SDS011;662;48.814;9.318;2023-08-20T08:44:16;11.70;;;10.33;;
1336;SDS011;662;48.814;9.318;2023-08-20T08:46:42;11.87;;;9.40;;
1336;SDS011;662;48.814;9.318;2023-08-20T08:49:07;12.00;;;10.83;;
1336;SDS011;662;48.814;9.318;2023-08-20T08:51:36;10.83;;;9.40;;
1336;SDS011;662;48.814;9.318;2023-08-20T08:54:03;11.30;;;10.27;;
1336;SDS011;662;48.814;9.318;2023-08-20T08:56:29;11.40;;;10.40;;
1336;SDS011;662;48.814;9.318;2023-08-20T08:58:55;11.40;;;10.40;;
1336;SDS011;662;48.814;9.318;2023-08-20T09:01:20;10.33;;;9.33;;
1336;SDS011;662;48.814;9.318;2023-08-20T09:03:47;10.37;;;9.47;;
1336;SDS011;662;48.814;9.318;2023-08-20T09:06:12;10.97;;;10.07;;
1336;SDS011;662;48.814;9.318;2023-08-20T09:08:38;10.87;;;9.87;;
1336;SDS011;662;48.814;9.318;2023-08-20T09:11:03;10.70;;;9.80;;
1336;SDS011;662;48.814;9.318;2023-08-20T09:13:39;9.90;;;9.10;;
1336;SDS011;662;48.814;9.318;2023-08-20T09:16:10;9.80;;;9.00;;
1336;SDS011;662;48.814;9.318;2023-08-20T09:18:39;9.90;;;9.07;;
1336;SDS011;662;48.814;9.318;2023-08-20T09:21:06;10.93;;;9.87;;
1336;SDS011;662;48.814;9.318;2023-08-20T09:23:37;10.67;;;9.77;;
1336;SDS011;662;48.814;9.318;2023-08-20T09:26:04;9.53;;;8.47;;
1336;SDS011;662;48.814;9.318;2023-08-20T09:28:44;8.93;;;8.13;;
1336;SDS011;662;48.814;9.318;2023-08-20T09:31:10;9.47;;;8.50;;
1336;SDS011;662;48.814;9.318;2023-08-20T09:33:54;9.30;;;8.50;;
1336;SDS011;662;48.814;9.318;2023-08-20T09:36:29;8.57;;;7.85;;
1336;SDS011;662;48.814;9.318;2023-08-20T09:38:55;8.73;;;8.02;;
1336;SDS011;662;48.814;9.318;2023-08-20T09:41:21;8.60;;;7.82;;
1336;SDS011;662;48.814;9.318;2023-08-20T09:43:48;9.10;;;8.25;;
1336;SDS011;662;48.814;9.318;2023-08-20T09:46:19;9.02;;;8.23;;
1336;SDS011;662;48.814;9.318;2023-08-20T09:48:47;9.13;;;8.32;;
1336;SDS011;662;48.814;9.318;2023-08-20T09:51:15;8.27;;;7.68;;
1336;SDS011;662;48.814;9.318;2023-08-20T09:53:53;9.45;;;8.65;;
1336;SDS011;662;48.814;9.318;2023-08-20T09:56:32;8.50;;;7.78;;
1336;SDS011;662;48.814;9.318;2023-08-20T09:59:03;9.27;;;8.48;;
1336;SDS011;662;48.814;9.318;2023-08-20T10:01:29;9.93;;;9.13;;
1336;SDS011;662;48.814;9.318;2023-08-20T10:03:56;8.65;;;7.85;;
1336;SDS011;662;48.814;9.318;2023-08-20T10:06:22;8.85;;;8.15;;
1336;SDS011;662;48.814;9.318;2023-08-20T10:08:50;9.52;;;8.63;;
1336;SDS011;662;48.814;9.318;2023-08-20T10:11:16;8.98;;;8.27;;
1336;SDS011;662;48.814;9.318;2023-08-20T10:13:42;8.63;;;7.85;;
1336;SDS011;662;48.814;9.318;2023-08-20T10:16:11;8.68;;;7.97;;
1336;SDS011;662;48.814;9.318;2023-08-20T10:18:38;8.15;;;7.55;;
1336;SDS011;662;48.814;9.318;2023-08-20T10:21:04;9.20;;;8.40;;
1336;SDS011;662;48.814;9.318;2023-08-20T10:23:33;8.95;;;8.15;;
1336;SDS011;662;48.814;9.318;2023-08-20T10:26:08;8.90;;;7.88;;
1336;SDS011;662;48.814;9.318;2023-08-20T10:28:35;8.77;;;7.22;;
1336;SDS011;662;48.814;9.318;2023-08-20T10:34:17;8.10;;;7.50;;
1336;SDS011;662;48.814;9.318;2023-08-20T10:36:21;8.23;;;7.53;;
1336;SDS011;662;48.814;9.318;2023-08-20T10:38:53;8.18;;;7.57;;
1336;SDS011;662;48.814;9.318;2023-08-20T10:41:24;9.27;;;8.40;;
1336;SDS011;662;48.814;9.318;2023-08-20T10:43:51;7.57;;;7.07;;
1336;SDS011;662;48.814;9.318;2023-08-20T10:46:18;7.63;;;6.90;;
1336;SDS011;662;48.814;9.318;2023-08-20T10:51:17;8.73;;;7.93;;
1336;SDS011;662;48.814;9.318;2023-08-20T10:54:06;8.85;;;8.13;;
1336;SDS011;662;48.814;9.318;2023-08-20T10:59:23;8.00;;;7.40;;
1336;SDS011;662;48.814;9.318;2023-08-20T11:01:52;9.70;;;7.95;;
1336;SDS011;662;48.814;9.318;2023-08-20T11:04:23;8.23;;;7.53;;
1336;SDS011;662;48.814;9.318;2023-08-20T11:06:53;7.95;;;7.30;;
1336;SDS011;662;48.814;9.318;2023-08-20T11:09:24;7.88;;;7.32;;
1336;SDS011;662;48.814;9.318;2023-08-20T11:11:51;9.20;;;8.38;;
1336;SDS011;662;48.814;9.318;2023-08-20T11:14:18;8.07;;;7.38;;
1336;SDS011;662;48.814;9.318;2023-08-20T11:16:45;7.60;;;7.07;;
1336;SDS011;662;48.814;9.318;2023-08-20T11:19:12;9.15;;;7.32;;
1336;SDS011;662;48.814;9.318;2023-08-20T11:21:38;7.80;;;7.10;;
1336;SDS011;662;48.814;9.318;2023-08-20T11:24:06;7.65;;;7.05;;
1336;SDS011;662;48.814;9.318;2023-08-20T11:26:33;7.60;;;7.00;;
1336;SDS011;662;48.814;9.318;2023-08-20T11:29:00;7.47;;;6.78;;
1336;SDS011;662;48.814;9.318;2023-08-20T11:31:27;7.88;;;7.03;;
1336;SDS011;662;48.814;9.318;2023-08-20T11:33:53;6.88;;;6.38;;
1336;SDS011;662;48.814;9.318;2023-08-20T11:36:21;7.50;;;6.80;;
1336;SDS011;662;48.814;9.318;2023-08-20T11:38:50;7.38;;;6.68;;
1336;SDS011;662;48.814;9.318;2023-08-20T11:41:22;8.88;;;7.80;;
1336;SDS011;662;48.814;9.318;2023-08-20T11:43:50;6.28;;;5.78;;
1336;SDS011;662;48.814;9.318;2023-08-20T11:46:18;7.45;;;6.85;;
1336;SDS011;662;48.814;9.318;2023-08-20T11:49:01;8.25;;;7.55;;
1336;SDS011;662;48.814;9.318;2023-08-20T11:51:28;7.68;;;7.03;;
1336;SDS011;662;48.814;9.318;2023-08-20T11:53:54;6.30;;;5.90;;
1336;SDS011;662;48.814;9.318;2023-08-20T11:56:21;7.53;;;6.72;;
1336;SDS011;662;48.814;9.318;2023-08-20T11:58:50;7.32;;;6.65;;
1336;SDS011;662;48.814;9.318;2023-08-20T12:01:17;6.95;;;6.55;;
1336;SDS011;662;48.814;9.318;2023-08-20T12:03:44;7.32;;;6.82;;
1336;SDS011;662;48.814;9.318;2023-08-20T12:06:19;9.43;;;7.20;;
1336;SDS011;662;48.814;9.318;2023-08-20T12:08:47;7.20;;;6.60;;
1336;SDS011;662;48.814;9.318;2023-08-20T12:11:13;6.43;;;5.93;;
1336;SDS011;662;48.814;9.318;2023-08-20T12:13:39;6.97;;;6.47;;
1336;SDS011;662;48.814;9.318;2023-08-20T12:16:05;7.80;;;7.10;;
1336;SDS011;662;48.814;9.318;2023-08-20T12:18:31;6.63;;;6.13;;
1336;SDS011;662;48.814;9.318;2023-08-20T12:20:57;6.40;;;5.80;;
1336;SDS011;662;48.814;9.318;2023-08-20T12:23:22;5.93;;;5.43;;
1336;SDS011;662;48.814;9.318;2023-08-20T12:25:51;6.28;;;5.85;;
1336;SDS011;662;48.814;9.318;2023-08-20T12:28:17;6.53;;;5.93;;
1336;SDS011;662;48.814;9.318;2023-08-20T12:30:43;6.32;;;5.80;;
1336;SDS011;662;48.814;9.318;2023-08-20T12:33:09;5.85;;;5.30;;
1336;SDS011;662;48.814;9.318;2023-08-20T12:35:36;6.68;;;6.10;;
1336;SDS011;662;48.814;9.318;2023-08-20T12:38:02;6.22;;;5.70;;
1336;SDS011;662;48.814;9.318;2023-08-20T12:40:28;5.70;;;5.20;;
1336;SDS011;662;48.814;9.318;2023-08-20T12:42:54;5.57;;;5.18;;
1336;SDS011;662;48.814;9.318;2023-08-20T12:45:20;5.95;;;5.50;;
1336;SDS011;662;48.814;9.318;2023-08-20T12:47:46;6.05;;;5.55;;
1336;SDS011;662;48.814;9.318;2023-08-20T12:50:11;5.78;;;5.13;;
1336;SDS011;662;48.814;9.318;2023-08-20T12:52:39;6.50;;;6.00;;
1336;SDS011;662;48.814;9.318;2023-08-20T12:55:05;6.45;;;5.85;;
1336;SDS011;662;48.814;9.318;2023-08-20T12:57:30;6.00;;;5.60;;
1336;SDS011;662;48.814;9.318;2023-08-20T12:59:58;5.90;;;5.47;;
1336;SDS011;662;48.814;9.318;2023-08-20T13:02:24;5.80;;;5.30;;
1336;SDS011;662;48.814;9.318;2023-08-20T13:04:50;6.30;;;5.38;;
1336;SDS011;662;48.814;9.318;2023-08-20T13:07:16;7.93;;;5.43;;
1336;SDS011;662;48.814;9.318;2023-08-20T13:09:42;6.13;;;5.63;;
1336;SDS011;662;48.814;9.318;2023-08-20T13:12:09;6.95;;;5.07;;
1336;SDS011;662;48.814;9.318;2023-08-20T13:14:37;5.63;;;5.22;;
1336;SDS011;662;48.814;9.318;2023-08-20T13:17:04;5.63;;;5.22;;
1336;SDS011;662;48.814;9.318;2023-08-20T13:19:30;5.88;;;4.90;;
1336;SDS011;662;48.814;9.318;2023-08-20T13:21:56;5.80;;;5.30;;
1336;SDS011;662;48.814;9.318;2023-08-20T13:24:21;5.93;;;5.43;;
1336;SDS011;662;48.814;9.318;2023-08-20T13:26:47;6.68;;;6.18;;
1336;SDS011;662;48.814;9.318;2023-08-20T13:29:13;5.80;;;5.10;;
1336;SDS011;662;48.814;9.318;2023-08-20T13:31:38;5.80;;;5.30;;
1336;SDS011;662;48.814;9.318;2023-08-20T13:34:04;7.68;;;5.60;;
1336;SDS011;662;48.814;9.318;2023-08-20T13:36:30;5.75;;;5.30;;
1336;SDS011;662;48.814;9.318;2023-08-20T13:38:55;5.63;;;5.22;;
1336;SDS011;662;48.814;9.318;2023-08-20T13:41:21;6.38;;;5.85;;
1336;SDS011;662;48.814;9.318;2023-08-20T13:43:46;5.65;;;5.25;;
1336;SDS011;662;48.814;9.318;2023-08-20T13:46:12;6.03;;;5.43;;
1336;SDS011;662;48.814;9.318;2023-08-20T13:48:38;5.00;;;4.55;;
1336;SDS011;662;48.814;9.318;2023-08-20T13:51:03;5.95;;;5.43;;
1336;SDS011;662;48.814;9.318;2023-08-20T13:53:29;6.10;;;5.53;;
1336;SDS011;662;48.814;9.318;2023-08-20T13:55:57;6.60;;;5.20;;
1336;SDS011;662;48.814;9.318;2023-08-20T13:58:23;5.90;;;5.30;;
1336;SDS011;662;48.814;9.318;2023-08-20T14:00:49;5.85;;;5.30;;
1336;SDS011;662;48.814;9.318;2023-08-20T14:03:14;5.78;;;5.25;;
1336;SDS011;662;48.814;9.318;2023-08-20T14:05:40;5.40;;;4.90;;
1336;SDS011;662;48.814;9.318;2023-08-20T14:08:05;6.70;;;6.00;;
1336;SDS011;662;48.814;9.318;2023-08-20T14:10:31;6.30;;;5.80;;
1336;SDS011;662;48.814;9.318;2023-08-20T14:12:57;5.65;;;5.15;;
1336;SDS011;662;48.814;9.318;2023-08-20T14:15:22;5.15;;;4.75;;
1336;SDS011;662;48.814;9.318;2023-08-20T14:17:48;7.03;;;5.20;;
1336;SDS011;662;48.814;9.318;2023-08-20T14:20:14;6.25;;;5.57;;
1336;SDS011;662;48.814;9.318;2023-08-20T14:22:39;5.55;;;5.03;;
1336;SDS011;662;48.814;9.318;2023-08-20T14:25:05;7.10;;;5.68;;
1336;SDS011;662;48.814;9.318;2023-08-20T14:27:31;5.85;;;5.28;;
1336;SDS011;662;48.814;9.318;2023-08-20T14:29:56;6.38;;;5.82;;
1336;SDS011;662;48.814;9.318;2023-08-20T14:32:22;6.15;;;5.65;;
1336;SDS011;662;48.814;9.318;2023-08-20T14:34:48;5.72;;;5.32;;
1336;SDS011;662;48.814;9.318;2023-08-20T14:37:13;5.10;;;4.80;;
1336;SDS011;662;48.814;9.318;2023-08-20T14:39:39;6.05;;;5.47;;
1336;SDS011;662;48.814;9.318;2023-08-20T14:42:05;6.95;;;5.85;;
1336;SDS011;662;48.814;9.318;2023-08-20T14:44:30;5.97;;;5.47;;
1336;SDS011;662;48.814;9.318;2023-08-20T14:46:56;6.50;;;5.75;;
1336;SDS011;662;48.814;9.318;2023-08-20T14:49:22;6.20;;;5.60;;
1336;SDS011;662;48.814;9.318;2023-08-20T14:51:48;7.15;;;5.85;;
1336;SDS011;662;48.814;9.318;2023-08-20T14:54:14;6.80;;;6.30;;
1336;SDS011;662;48.814;9.318;2023-08-20T14:56:40;7.43;;;6.65;;
1336;SDS011;662;48.814;9.318;2023-08-20T14:59:05;6.80;;;6.20;;
1336;SDS011;662;48.814;9.318;2023-08-20T15:01:31;6.53;;;5.93;;
1336;SDS011;662;48.814;9.318;2023-08-20T15:03:56;7.07;;;6.47;;
1336;SDS011;662;48.814;9.318;2023-08-20T15:06:22;6.32;;;5.90;;
1336;SDS011;662;48.814;9.318;2023-08-20T15:08:49;7.30;;;6.57;;
1336;SDS011;662;48.814;9.318;2023-08-20T15:11:15;7.15;;;6.55;;
1336;SDS011;662;48.814;9.318;2023-08-20T15:13:41;7.18;;;6.57;;
1336;SDS011;662;48.814;9.318;2023-08-20T15:16:06;12.43;;;6.55;;
1336;SDS011;662;48.814;9.318;2023-08-20T15:18:33;6.85;;;6.30;;
1336;SDS011;662;48.814;9.318;2023-08-20T15:20:59;7.00;;;6.43;;
1336;SDS011;662;48.814;9.318;2023-08-20T15:23:26;7.43;;;6.15;;
1336;SDS011;662;48.814;9.318;2023-08-20T15:25:53;6.90;;;6.30;;
1336;SDS011;662;48.814;9.318;2023-08-20T15:28:21;6.88;;;6.00;;
1336;SDS011;662;48.814;9.318;2023-08-20T15:30:48;7.25;;;5.93;;